메인 페이지
METAR-TAF:

METAR-TAF

공항 :

Guymon, 오클라호마, 미국

위도: 36-40-54N, 경도: 101-30-19W, 고도: 952m

현재 날씨관측

예보는 30분 전, 22:53시(UTC)에 발표되었습니다.
남남동14kt, 순간 최대 풍속 20kt
온도 34°C
습도 26%
기압 1009 hPa
시정: 16.1km
맑음

METAR: KGUY 262253Z AUTO 15014G20KT 10SM CLR 34/12 A2981 RMK AO2 SLP043 T03390122

시각: 18:23 (23:23 UTC)

예보

예보는 6 시간 3분 전, 17:20시(UTC)에 발표되었습니다.
예보 대상 시간: 26일 18시부터 27일 18시까지 (UTC)
남남동13kt
시정: 10km
고도 20000ft 상공 구름 많음
27일 1400시부터 (UTC)
남남동16kt
시정: 10km
고도 20000ft 상공 구름 보통

TAF: KGUY 261720Z 2618/2718 15013KT P6SM BKN200 FM271400 16016KT P6SM SCT200

4,000개 이상의 공항 관측 자료 및 예보 (METAR 및 TAF 보고).

지도상에서 검색 가능한 기상관측소가 노란 점과 빨간 점으로 표시되어 있습니다.

기상관측소 명을 보려면 표시 위로 마우스를 이동하세요.

날씨 관측과 예보를 보려면 클릭하세요.

지도 변경 : 확대하려면 엑스 표시가 있는 녹색 버튼, 축소하려면 빼기 표시가 있는 녹색 버튼, 다음 페이지의 지도를 보려면 녹색 화살표를 클릭하세요.


METAR-TAF: